Time;durP1;ratioP1;P1;durP2;ratioP2;P2;SDS_P1;SDS_P2;PMS_P1;PMS_P2;Temp;Humidity;BMP_temperature;BMP_pressure;BME280_temperature;BME280_humidity;BME280_pressure;Samples;Min_cycle;Max_cycle;Signal;HPM_P1;HPM_P2
2022/07/07 00:01:42;;;;;;;13.57;3.72;;;20.40;99.90;;;;;;6267087;28;20516;-79
2022/07/07 00:04:45;;;;;;;7.70;4.68;;;20.60;99.90;;;;;;6251672;28;20053;-78
2022/07/07 00:07:47;;;;;;;10.37;4.03;;;20.70;99.90;;;;;;6274942;28;20060;-80
2022/07/07 00:10:49;;;;;;;8.23;6.60;;;20.70;99.90;;;;;;6273281;28;20053;-78
2022/07/07 00:13:54;;;;;;;5.75;3.45;;;20.70;99.90;;;;;;6267372;28;20384;-78
2022/07/07 00:16:56;;;;;;;6.40;4.45;;;20.80;99.90;;;;;;6251042;28;20053;-79
2022/07/07 00:19:58;;;;;;;5.13;3.47;;;20.70;99.90;;;;;;6273123;28;20172;-78
2022/07/07 00:23:00;;;;;;;7.25;5.70;;;20.60;99.90;;;;;;6274059;28;20041;-78
2022/07/07 00:26:02;;;;;;;6.10;4.10;;;20.60;99.90;;;;;;6274294;28;20122;-78
2022/07/07 00:29:06;;;;;;;9.32;5.90;;;20.60;99.90;;;;;;6270937;28;20037;-79
2022/07/07 00:32:08;;;;;;;6.97;4.60;;;20.40;99.90;;;;;;6257821;28;20045;-78
2022/07/07 00:35:10;;;;;;;5.68;4.00;;;20.30;99.90;;;;;;6270988;28;20049;-78
2022/07/07 00:38:12;;;;;;;8.50;5.68;;;20.40;99.90;;;;;;6266213;28;20049;-78
2022/07/07 00:41:15;;;;;;;4.93;2.83;;;20.30;99.90;;;;;;6276653;28;20040;-79
2022/07/07 00:44:19;;;;;;;7.53;4.85;;;20.40;99.90;;;;;;6281075;28;20037;-78
2022/07/07 00:47:21;;;;;;;4.78;2.33;;;20.40;99.90;;;;;;6271959;28;20498;-78
2022/07/07 00:50:23;;;;;;;6.13;2.83;;;20.40;99.90;;;;;;6271708;28;20053;-78
2022/07/07 00:53:25;;;;;;;7.38;4.57;;;20.30;99.90;;;;;;6260533;28;20076;-78
2022/07/07 00:56:27;;;;;;;7.72;4.10;;;20.40;99.90;;;;;;6250100;28;20096;-78
2022/07/07 00:59:30;;;;;;;6.47;3.90;;;20.40;99.90;;;;;;6272250;28;20057;-78
2022/07/07 01:02:32;;;;;;;6.75;3.65;;;20.40;99.90;;;;;;6264431;28;20465;-78
2022/07/07 01:05:36;;;;;;;6.78;3.70;;;20.30;99.90;;;;;;6256660;28;20088;-78
2022/07/07 01:08:38;;;;;;;6.85;4.68;;;20.40;99.90;;;;;;6249232;28;20060;-78
2022/07/07 01:11:52;;;;;;;10.75;5.18;;;20.40;99.90;;;;;;6267315;28;20055;-78
2022/07/07 01:14:55;;;;;;;;;;;20.50;99.90;;;;;;6250201;28;20470;-79
2022/07/07 01:17:57;;;;;;;5.50;2.83;;;20.40;99.90;;;;;;6261461;28;19935;-77
2022/07/07 01:21:02;;;;;;;4.95;2.95;;;20.30;99.90;;;;;;6248594;28;20057;-78
2022/07/07 01:24:06;;;;;;;5.35;4.18;;;20.30;99.90;;;;;;6267228;28;20060;-79
2022/07/07 01:27:10;;;;;;;3.08;2.40;;;20.40;99.90;;;;;;6286686;28;20075;-78
2022/07/07 01:30:13;;;;;;;4.38;2.85;;;20.50;99.90;;;;;;6256354;28;20402;-78
2022/07/07 01:33:16;;;;;;;4.97;2.83;;;20.60;99.90;;;;;;6261648;28;20045;-78
2022/07/07 01:36:18;;;;;;;;;;;20.50;99.90;;;;;;6272170;28;20045;-78
2022/07/07 01:39:21;;;;;;;3.95;2.20;;;20.40;99.90;;;;;;6262188;28;19921;-78
2022/07/07 01:42:23;;;;;;;4.72;2.83;;;20.20;99.90;;;;;;6275025;28;20059;-78
2022/07/07 01:45:25;;;;;;;3.72;2.97;;;19.90;99.90;;;;;;6254502;28;20050;-79
2022/07/07 01:48:27;;;;;;;3.85;2.80;;;19.90;99.90;;;;;;6273557;28;20049;-78
2022/07/07 01:51:29;;;;;;;5.63;2.42;;;19.60;99.90;;;;;;6272913;28;20053;-79
2022/07/07 01:54:33;;;;;;;4.40;2.30;;;19.50;99.90;;;;;;6269914;28;20049;-78
2022/07/07 01:57:35;;;;;;;3.30;1.50;;;19.60;99.90;;;;;;6260274;28;20056;-79
2022/07/07 02:00:37;;;;;;;6.13;2.05;;;20.10;99.90;;;;;;6261123;28;20060;-79
2022/07/07 02:03:38;;;;;;;2.60;1.83;;;20.00;99.90;;;;;;6274211;28;20048;-78
2022/07/07 02:06:40;;;;;;;3.28;1.35;;;19.70;99.90;;;;;;6271222;28;20045;-78
2022/07/07 02:09:44;;;;;;;4.25;1.88;;;19.80;99.90;;;;;;6271039;28;20052;-78
2022/07/07 02:12:46;;;;;;;7.07;1.95;;;19.90;99.90;;;;;;6266661;28;20041;-79
2022/07/07 02:15:47;;;;;;;3.47;1.92;;;19.90;99.90;;;;;;6246121;28;20052;-78
2022/07/07 02:18:53;;;;;;;2.63;1.70;;;19.80;99.90;;;;;;6262337;28;20040;-78
2022/07/07 02:21:55;;;;;;;1.90;1.40;;;19.50;99.90;;;;;;6271106;28;20411;-78
2022/07/07 02:24:58;;;;;;;3.45;1.60;;;19.70;99.90;;;;;;6269451;28;20053;-79
2022/07/07 02:28:00;;;;;;;2.97;1.42;;;19.70;99.90;;;;;;6267932;28;20061;-78
2022/07/07 02:31:02;;;;;;;4.22;1.65;;;19.80;99.90;;;;;;6253368;28;20056;-78
2022/07/07 02:34:04;;;;;;;2.95;1.40;;;19.80;99.90;;;;;;6259657;28;20057;-77
2022/07/07 02:37:06;;;;;;;4.35;1.92;;;19.90;99.90;;;;;;6253072;28;20041;-79
2022/07/07 02:40:11;;;;;;;2.65;1.35;;;20.00;99.90;;;;;;6268134;28;20045;-78
2022/07/07 02:43:14;;;;;;;4.10;1.70;;;20.00;99.90;;;;;;6283728;28;20049;-78
2022/07/07 02:46:16;;;;;;;9.18;2.40;;;19.90;99.90;;;;;;6268304;28;20486;-78
2022/07/07 02:49:18;;;;;;;3.70;1.48;;;19.80;99.90;;;;;;6283556;28;20049;-78
2022/07/07 02:52:19;;;;;;;4.43;1.35;;;19.60;99.90;;;;;;6265669;28;20052;-78
2022/07/07 02:55:24;;;;;;;5.70;2.08;;;19.60;99.90;;;;;;6269864;28;20052;-78
2022/07/07 02:58:26;;;;;;;2.83;1.40;;;19.70;99.90;;;;;;6265095;28;20053;-78
2022/07/07 03:01:28;;;;;;;4.43;1.40;;;19.60;99.90;;;;;;6270148;28;20417;-78
2022/07/07 03:04:30;;;;;;;2.85;1.42;;;19.70;99.90;;;;;;6258669;28;20065;-78
2022/07/07 03:07:31;;;;;;;7.32;1.90;;;19.90;99.90;;;;;;6254321;28;20501;-78
2022/07/07 03:10:35;;;;;;;3.80;1.50;;;19.90;99.90;;;;;;6268705;28;20087;-78
2022/07/07 03:13:37;;;;;;;6.22;2.20;;;19.80;99.90;;;;;;6270057;28;20053;-77
2022/07/07 03:16:39;;;;;;;6.07;1.80;;;19.60;99.90;;;;;;6269388;28;20045;-78
2022/07/07 03:19:41;;;;;;;4.45;1.40;;;19.40;99.90;;;;;;6262601;28;20048;-78
2022/07/07 03:22:43;;;;;;;7.10;1.88;;;19.50;99.90;;;;;;6258876;28;20053;-78
2022/07/07 03:25:46;;;;;;;3.80;1.35;;;19.90;99.90;;;;;;6273426;28;20051;-78
2022/07/07 03:28:48;;;;;;;5.60;1.50;;;19.90;99.90;;;;;;6255766;28;20056;-78
2022/07/07 03:31:50;;;;;;;3.58;1.80;;;19.90;99.90;;;;;;6275966;28;20041;-78
2022/07/07 03:34:52;;;;;;;3.50;1.10;;;19.90;99.90;;;;;;6269057;28;20041;-78
2022/07/07 03:37:54;;;;;;;5.32;1.17;;;19.90;99.90;;;;;;6254494;28;20192;-77
2022/07/07 03:40:58;;;;;;;4.38;1.30;;;20.00;99.90;;;;;;6267001;28;20057;-77
2022/07/07 03:43:59;;;;;;;;;;;20.20;99.90;;;;;;6271749;28;20049;-78
2022/07/07 03:47:01;;;;;;;2.75;1.15;;;20.10;99.90;;;;;;6271236;28;19928;-78
2022/07/07 03:50:04;;;;;;;5.68;1.63;;;20.20;99.90;;;;;;6272019;28;20049;-79
2022/07/07 03:53:06;;;;;;;5.28;1.70;;;20.30;99.90;;;;;;6272246;28;20045;-79
2022/07/07 03:56:09;;;;;;;7.15;1.88;;;20.50;99.90;;;;;;6258034;28;20053;-78
2022/07/07 03:59:11;;;;;;;7.43;1.40;;;20.00;99.90;;;;;;6253355;28;20530;-78
2022/07/07 04:02:13;;;;;;;6.68;1.30;;;19.80;99.90;;;;;;6267333;28;20520;-77
2022/07/07 04:05:15;;;;;;;5.15;1.08;;;19.40;99.90;;;;;;6275108;28;20048;-77
2022/07/07 04:08:17;;;;;;;5.53;1.30;;;19.10;99.90;;;;;;6272621;28;20053;-78
2022/07/07 04:11:20;;;;;;;6.28;1.48;;;18.60;99.90;;;;;;6269764;28;20053;-78
2022/07/07 04:14:22;;;;;;;8.00;1.33;;;18.10;99.90;;;;;;6262480;28;20208;-78
2022/07/07 04:17:24;;;;;;;6.22;1.30;;;17.90;99.90;;;;;;6272090;28;20057;-77
2022/07/07 04:20:26;;;;;;;9.02;1.50;;;17.90;99.90;;;;;;6273263;28;20048;-78
2022/07/07 04:23:28;;;;;;;7.85;1.50;;;17.60;99.90;;;;;;6266086;28;20045;-78
2022/07/07 04:26:31;;;;;;;10.25;1.48;;;17.60;99.90;;;;;;6248655;28;20430;-78
2022/07/07 04:29:33;;;;;;;7.55;1.30;;;17.50;99.90;;;;;;6268652;28;20048;-77
2022/07/07 04:32:35;;;;;;;8.45;1.13;;;17.60;99.90;;;;;;6274081;28;20501;-78
2022/07/07 04:35:37;;;;;;;8.18;1.23;;;17.40;99.90;;;;;;6263863;28;20045;-77
2022/07/07 04:38:39;;;;;;;11.30;1.30;;;17.30;99.90;;;;;;6271926;28;20057;-78
2022/07/07 04:41:43;;;;;;;7.07;1.05;;;17.00;99.90;;;;;;6271566;28;20498;-76
2022/07/07 04:44:45;;;;;;;6.45;1.20;;;16.70;99.90;;;;;;6260482;28;20402;-76
2022/07/07 04:47:46;;;;;;;7.75;1.42;;;16.60;99.90;;;;;;6261715;28;20045;-76
2022/07/07 04:50:48;;;;;;;6.07;1.05;;;16.70;99.90;;;;;;6256334;28;20049;-77
2022/07/07 04:53:50;;;;;;;6.25;1.40;;;16.70;99.90;;;;;;6256554;28;20064;-77
2022/07/07 04:56:54;;;;;;;10.13;1.58;;;16.60;99.90;;;;;;6257946;28;20049;-77
2022/07/07 04:59:56;;;;;;;11.93;1.98;;;16.30;99.90;;;;;;6259556;28;20076;-77
2022/07/07 05:02:58;;;;;;;15.60;1.70;;;16.20;99.90;;;;;;6267028;28;20049;-77
2022/07/07 05:06:00;;;;;;;8.75;1.45;;;16.10;99.90;;;;;;6270909;28;20055;-78
2022/07/07 05:09:02;;;;;;;6.53;1.50;;;16.10;99.90;;;;;;6259286;28;20391;-77
2022/07/07 05:12:06;;;;;;;7.97;1.60;;;15.90;99.90;;;;;;6257304;28;20049;-77
2022/07/07 05:15:09;;;;;;;8.95;1.80;;;15.80;99.90;;;;;;6271933;28;20052;-77
2022/07/07 05:18:11;;;;;;;10.82;1.75;;;15.80;99.90;;;;;;6271513;28;20045;-76
2022/07/07 05:21:12;;;;;;;12.95;2.25;;;15.80;99.90;;;;;;6254828;28;20060;-77
2022/07/07 05:24:14;;;;;;;13.23;2.30;;;15.90;99.90;;;;;;6257178;28;20430;-76
2022/07/07 05:27:18;;;;;;;10.43;1.90;;;15.90;99.90;;;;;;6266070;28;20502;-77
2022/07/07 05:30:20;;;;;;;10.07;1.70;;;16.10;99.90;;;;;;6271843;28;20130;-76
2022/07/07 05:33:22;;;;;;;14.15;2.28;;;16.10;99.90;;;;;;6260047;28;20139;-76
2022/07/07 05:36:24;;;;;;;12.85;1.98;;;16.00;99.90;;;;;;6278338;28;20064;-77
2022/07/07 05:39:26;;;;;;;11.77;2.45;;;16.00;99.90;;;;;;6269999;28;20127;-76
2022/07/07 05:42:29;;;;;;;13.52;2.35;;;16.20;99.90;;;;;;6275179;28;20046;-76
2022/07/07 05:45:31;;;;;;;12.60;2.47;;;16.30;99.90;;;;;;6270125;28;20049;-75
2022/07/07 05:48:33;;;;;;;13.93;2.50;;;16.10;99.90;;;;;;6257802;28;20049;-77
2022/07/07 05:51:35;;;;;;;13.13;2.17;;;15.90;99.90;;;;;;6249805;28;20053;-76
2022/07/07 05:54:37;;;;;;;11.73;2.20;;;15.80;99.90;;;;;;6259269;28;20045;-76
2022/07/07 05:57:40;;;;;;;9.57;1.75;;;15.80;99.90;;;;;;6264200;28;20509;-76
2022/07/07 06:00:42;;;;;;;12.48;2.28;;;15.80;99.90;;;;;;6253917;28;20046;-76
2022/07/07 06:03:44;;;;;;;16.25;2.42;;;15.80;99.90;;;;;;6263004;28;20045;-84
2022/07/07 06:06:46;;;;;;;64.60;8.77;;;16.10;99.90;;;;;;6265152;28;20049;-78
2022/07/07 06:09:48;;;;;;;12.82;2.40;;;16.20;99.90;;;;;;6272782;28;20075;-87
2022/07/07 06:12:51;;;;;;;17.30;3.42;;;16.10;99.90;;;;;;6264225;28;20055;-81
2022/07/07 06:15:53;;;;;;;8.77;2.17;;;16.70;99.90;;;;;;6268360;28;20061;-84
2022/07/07 06:18:55;;;;;;;14.80;2.55;;;17.20;99.90;;;;;;6271335;28;20051;-87
2022/07/07 06:21:57;;;;;;;14.52;2.65;;;17.00;99.90;;;;;;6290488;28;20037;-83
2022/07/07 06:24:59;;;;;;;15.38;2.15;;;16.80;99.90;;;;;;6265090;28;20054;-84
2022/07/07 06:28:03;;;;;;;12.52;2.80;;;17.20;99.90;;;;;;6264561;28;20048;-83
2022/07/07 06:31:05;;;;;;;11.95;2.15;;;17.50;99.90;;;;;;6269897;28;20063;-83
2022/07/07 06:34:07;;;;;;;14.05;2.60;;;17.80;99.90;;;;;;6274442;28;20577;-85
2022/07/07 06:37:09;;;;;;;9.60;1.90;;;17.50;99.90;;;;;;6269867;28;20053;-85
2022/07/07 06:40:12;;;;;;;13.55;2.22;;;18.00;99.90;;;;;;6283629;28;20047;-83
2022/07/07 06:43:15;;;;;;;9.07;2.37;;;17.80;99.90;;;;;;6265725;28;21048;-83
2022/07/07 06:46:17;;;;;;;7.35;1.73;;;17.60;99.90;;;;;;6256293;28;20598;-85
2022/07/07 06:49:19;;;;;;;7.63;1.95;;;17.50;99.90;;;;;;6250243;28;20095;-85
2022/07/07 06:52:21;;;;;;;13.40;2.60;;;17.50;99.90;;;;;;6254975;28;20052;-85
2022/07/07 06:55:23;;;;;;;9.68;2.22;;;17.80;99.90;;;;;;6260176;28;20413;-86
2022/07/07 06:58:27;;;;;;;9.88;2.25;;;17.40;99.90;;;;;;6253372;28;20048;-82
2022/07/07 07:01:29;;;;;;;14.18;2.33;;;17.50;99.90;;;;;;6266807;28;20062;-84
2022/07/07 07:04:31;;;;;;;11.38;2.10;;;17.80;99.90;;;;;;6264208;28;20363;-85
2022/07/07 07:07:33;;;;;;;10.82;2.40;;;18.00;99.90;;;;;;6257623;28;20563;-83
2022/07/07 07:10:35;;;;;;;9.25;2.00;;;17.90;99.90;;;;;;6270042;28;20049;-84
2022/07/07 07:13:39;;;;;;;11.02;2.58;;;18.10;99.90;;;;;;6267460;28;20056;-84
2022/07/07 07:16:41;;;;;;;11.13;2.10;;;18.30;99.90;;;;;;6260006;28;20049;-85
2022/07/07 07:19:43;;;;;;;8.68;1.70;;;18.40;99.90;;;;;;6250984;28;20060;-85
2022/07/07 07:22:44;;;;;;;7.95;1.77;;;18.40;99.90;;;;;;6279940;28;20049;-84
2022/07/07 07:25:46;;;;;;;9.23;1.80;;;18.70;99.90;;;;;;6256187;28;20060;-83
2022/07/07 07:28:50;;;;;;;10.30;2.03;;;18.30;99.90;;;;;;6267296;28;20081;-83
2022/07/07 07:31:52;;;;;;;10.38;2.03;;;17.60;99.90;;;;;;6301226;28;20052;-84
2022/07/07 07:34:54;;;;;;;7.00;1.80;;;17.30;99.90;;;;;;6270517;28;20049;-84
2022/07/07 07:37:56;;;;;;;6.97;1.70;;;17.10;99.90;;;;;;6264696;28;20051;-83
2022/07/07 07:40:58;;;;;;;10.13;2.50;;;17.20;99.90;;;;;;6263047;28;20505;-84
2022/07/07 07:44:01;;;;;;;10.82;2.20;;;17.20;99.90;;;;;;6260324;28;20037;-86
2022/07/07 07:47:03;;;;;;;7.43;1.80;;;17.20;99.90;;;;;;6245553;28;20053;-83
2022/07/07 07:50:06;;;;;;;9.45;2.10;;;17.90;99.90;;;;;;6262574;28;20045;-82
2022/07/07 07:53:08;;;;;;;6.93;1.60;;;18.40;99.90;;;;;;6259655;28;20061;-85
2022/07/07 07:56:10;;;;;;;10.50;1.63;;;18.60;99.90;;;;;;6245971;28;20054;-83
2022/07/07 07:59:13;;;;;;;7.82;1.50;;;18.60;99.90;;;;;;6258718;28;20049;-83
2022/07/07 08:02:15;;;;;;;6.22;1.30;;;18.50;99.90;;;;;;6255862;28;20079;-83
2022/07/07 08:05:18;;;;;;;8.18;1.60;;;18.60;99.90;;;;;;6278638;28;20052;-83
2022/07/07 08:08:20;;;;;;;9.40;1.55;;;18.60;99.90;;;;;;6275206;28;20040;-85
2022/07/07 08:11:22;;;;;;;6.90;1.20;;;18.50;99.90;;;;;;6271564;28;20061;-85
2022/07/07 08:14:25;;;;;;;7.90;1.08;;;18.80;99.90;;;;;;6273212;28;20061;-84
2022/07/07 08:17:27;;;;;;;7.50;1.30;;;18.70;99.90;;;;;;6289720;28;20531;-84
2022/07/07 08:20:30;;;;;;;7.85;0.90;;;19.00;99.90;;;;;;6285677;28;20045;-84
2022/07/07 08:23:32;;;;;;;4.57;1.10;;;18.60;99.90;;;;;;6259250;28;20131;-83
2022/07/07 08:26:34;;;;;;;4.45;1.35;;;18.70;99.90;;;;;;6306366;28;20060;-83
2022/07/07 08:29:38;;;;;;;3.58;0.80;;;19.20;99.90;;;;;;6273211;28;20049;-83
2022/07/07 08:32:43;;;;;;;6.20;1.00;;;19.30;99.90;;;;;;6264321;28;20049;-83
2022/07/07 08:35:45;;;;;;;6.93;1.00;;;18.70;99.90;;;;;;6249332;28;20482;-86
2022/07/07 08:38:47;;;;;;;3.80;0.80;;;18.90;99.90;;;;;;6249178;28;20517;-84
2022/07/07 08:41:49;;;;;;;5.50;0.80;;;19.30;99.90;;;;;;6249299;28;20134;-86
2022/07/07 08:44:52;;;;;;;4.40;0.93;;;19.30;99.90;;;;;;6249222;28;20046;-85
2022/07/07 08:47:55;;;;;;;2.92;0.75;;;19.30;99.90;;;;;;6247172;28;20069;-86
2022/07/07 08:50:59;;;;;;;3.10;1.00;;;18.80;99.90;;;;;;6269313;28;20041;-85
2022/07/07 08:54:02;;;;;;;2.75;0.80;;;18.80;99.90;;;;;;6287302;28;20426;-84
2022/07/07 08:57:05;;;;;;;3.38;0.98;;;18.40;99.90;;;;;;6248802;28;20430;-84
2022/07/07 09:00:10;;;;;;;4.05;1.00;;;18.50;99.90;;;;;;6248682;28;20049;-84
2022/07/07 09:03:12;;;;;;;4.15;1.08;;;19.10;99.90;;;;;;6264362;28;20176;-85
2022/07/07 09:06:16;;;;;;;5.13;0.80;;;18.70;99.90;;;;;;6254891;28;20551;-85
2022/07/07 09:09:29;;;;;;;4.35;1.00;;;18.60;99.90;;;;;;6276618;28;20391;-84
2022/07/07 09:12:34;;;;;;;6.70;0.82;;;18.80;99.90;;;;;;6273609;28;20080;-85
2022/07/07 09:15:40;;;;;;;5.13;1.52;;;18.80;99.90;;;;;;6289218;28;20049;-83
2022/07/07 09:18:44;;;;;;;6.70;1.27;;;18.60;99.90;;;;;;6248168;28;20053;-84
2022/07/07 09:21:47;;;;;;;6.13;1.00;;;19.10;99.90;;;;;;6247038;28;20052;-84
2022/07/07 09:24:56;;;;;;;7.88;1.23;;;19.10;99.90;;;;;;6254840;28;20765;-83
2022/07/07 09:28:00;;;;;;;3.20;0.60;;;18.80;99.90;;;;;;6297512;28;20106;-84
2022/07/07 09:31:04;;;;;;;3.97;0.88;;;18.60;99.90;;;;;;6278841;28;20052;-86
2022/07/07 09:34:13;;;;;;;2.83;0.88;;;18.10;99.90;;;;;;6273010;28;20045;-85
2022/07/07 09:40:34;;;;;;;1.98;0.70;;;18.20;99.90;;;;;;6275415;28;20470;-84
2022/07/07 09:43:38;;;;;;;5.50;1.10;;;18.30;99.90;;;;;;6295654;28;20052;-82
2022/07/07 09:46:41;;;;;;;6.05;1.40;;;18.40;99.90;;;;;;6246397;28;20057;-87
2022/07/07 09:49:44;;;;;;;;;;;18.30;99.90;;;;;;6260454;28;20048;-85
2022/07/07 09:52:47;;;;;;;9.93;2.15;;;18.20;99.90;;;;;;6246791;28;19921;-86
2022/07/07 09:56:01;;;;;;;6.72;1.85;;;18.00;99.90;;;;;;6260012;28;20044;-84
2022/07/07 09:59:05;;;;;;;11.40;2.50;;;18.70;99.90;;;;;;6258524;28;20049;-84
2022/07/07 10:02:13;;;;;;;6.55;1.48;;;18.80;99.90;;;;;;6247301;28;20122;-85
2022/07/07 10:05:17;;;;;;;6.32;1.52;;;18.60;99.90;;;;;;6259354;28;20449;-85
2022/07/07 10:08:19;;;;;;;5.85;1.20;;;18.00;99.90;;;;;;6253458;28;20048;-88
2022/07/07 10:11:23;;;;;;;9.38;1.60;;;17.80;99.90;;;;;;6290329;28;20417;-88
2022/07/07 10:14:28;;;;;;;10.20;1.50;;;17.40;99.90;;;;;;6272743;28;20041;-83
2022/07/07 10:17:32;;;;;;;5.60;1.35;;;17.70;99.90;;;;;;6258009;28;20041;-86
2022/07/07 10:20:34;;;;;;;9.82;1.67;;;17.80;99.90;;;;;;6250467;28;20045;-88
2022/07/07 10:23:36;;;;;;;6.85;1.42;;;17.70;99.90;;;;;;6299361;28;20045;-85
2022/07/07 10:26:40;;;;;;;7.40;1.73;;;17.10;99.90;;;;;;6265157;28;20056;-79
2022/07/07 10:29:44;;;;;;;11.05;2.13;;;16.70;99.90;;;;;;6266961;28;20063;-88
2022/07/07 10:32:52;;;;;;;;;;;16.70;99.90;;;;;;6252570;28;20391;-85
2022/07/07 10:35:54;;;;;;;12.30;2.90;;;16.30;99.90;;;;;;6291876;28;19924;-83
2022/07/07 10:38:58;;;;;;;16.30;3.00;;;16.40;99.90;;;;;;6258987;28;20048;-82
2022/07/07 10:42:07;;;;;;;16.42;3.47;;;16.50;99.90;;;;;;6254376;28;20052;-86
2022/07/07 10:45:10;;;;;;;10.90;2.47;;;16.50;99.90;;;;;;6261964;28;20037;-83
2022/07/07 10:48:41;;;;;;;11.20;2.20;;;16.90;99.90;;;;;;6286653;28;20143;-81
2022/07/07 10:51:54;;;;;;;16.38;2.85;;;17.10;99.90;;;;;;6260614;28;20049;-82
2022/07/07 10:55:02;;;;;;;15.90;2.35;;;16.80;99.90;;;;;;6260286;28;20052;-83
2022/07/07 10:58:04;;;;;;;8.63;1.85;;;16.90;99.90;;;;;;6261938;28;20523;-82
2022/07/07 11:01:09;;;;;;;11.43;2.35;;;17.30;99.90;;;;;;6253912;28;20050;-84
2022/07/07 11:04:12;;;;;;;12.63;2.35;;;17.40;99.90;;;;;;6255273;28;20449;-82
2022/07/07 11:07:16;;;;;;;20.27;3.75;;;17.20;99.90;;;;;;6254949;28;20503;-81
2022/07/07 11:10:18;;;;;;;14.88;2.75;;;17.20;99.90;;;;;;6268798;28;20057;-82
2022/07/07 11:13:30;;;;;;;22.73;3.08;;;16.90;99.90;;;;;;6266209;28;20506;-81
2022/07/07 11:16:32;;;;;;;16.75;2.60;;;16.90;99.90;;;;;;6256386;28;20056;-79
2022/07/07 11:19:35;;;;;;;12.13;2.63;;;16.90;99.90;;;;;;6283334;28;20059;-80
2022/07/07 11:22:42;;;;;;;;;;;17.20;99.90;;;;;;6256830;28;20072;-79
2022/07/07 11:25:46;;;;;;;8.93;2.03;;;17.50;99.90;;;;;;6280419;28;20388;-82
2022/07/07 11:28:48;;;;;;;11.70;2.00;;;17.60;99.90;;;;;;6265437;28;20053;-80
2022/07/07 11:32:09;;;;;;;13.02;2.03;;;17.70;99.90;;;;;;6258545;28;20051;-81
2022/07/07 11:35:14;;;;;;;12.73;2.55;;;17.60;99.90;;;;;;6250387;28;20052;-82
2022/07/07 11:38:16;;;;;;;14.70;2.58;;;17.60;99.90;;;;;;6260736;28;20045;-81
2022/07/07 11:41:17;;;;;;;14.30;2.33;;;17.40;99.90;;;;;;6250911;28;20049;-83
2022/07/07 11:44:20;;;;;;;13.52;2.17;;;17.40;99.90;;;;;;6258080;28;20071;-82
2022/07/07 11:47:23;;;;;;;11.13;2.60;;;17.30;99.90;;;;;;6262486;28;20054;-82
2022/07/07 11:50:31;;;;;;;9.60;2.03;;;17.70;99.90;;;;;;6257975;28;20053;-82
2022/07/07 11:53:33;;;;;;;12.15;2.42;;;17.70;99.90;;;;;;6258699;28;20041;-83
2022/07/07 11:56:37;;;;;;;11.48;2.38;;;17.60;99.90;;;;;;6285668;28;20158;-82
2022/07/07 11:59:38;;;;;;;13.38;2.45;;;17.30;99.90;;;;;;6255261;28;20048;-84
2022/07/07 12:02:41;;;;;;;10.88;2.35;;;17.60;99.90;;;;;;6268285;28;20049;-82
2022/07/07 12:05:48;;;;;;;14.30;3.42;;;18.10;99.90;;;;;;6261411;28;20053;-83
2022/07/07 12:08:50;;;;;;;21.02;3.15;;;18.30;99.90;;;;;;6292510;28;20060;-83
2022/07/07 12:11:53;;;;;;;22.48;3.50;;;18.10;99.90;;;;;;6275823;28;20048;-82
2022/07/07 12:14:55;;;;;;;13.07;2.90;;;17.90;99.90;;;;;;6260963;28;20113;-85
2022/07/07 12:17:58;;;;;;;11.82;2.78;;;17.70;99.90;;;;;;6263437;28;20515;-85
2022/07/07 12:21:03;;;;;;;11.93;2.67;;;17.80;99.90;;;;;;6263239;28;20127;-82
2022/07/07 12:24:05;;;;;;;16.80;3.10;;;17.90;99.90;;;;;;6261307;28;20414;-83
2022/07/07 12:27:17;;;;;;;16.88;3.40;;;18.40;99.90;;;;;;6259592;28;20050;-83
2022/07/07 12:30:19;;;;;;;9.18;1.88;;;18.10;99.90;;;;;;6258989;28;20157;-84
2022/07/07 12:33:28;;;;;;;12.45;2.45;;;18.40;99.90;;;;;;6260156;28;20060;-85
2022/07/07 12:36:34;;;;;;;14.45;2.83;;;18.50;99.90;;;;;;6285379;28;20409;-82
2022/07/07 12:39:36;;;;;;;12.55;2.42;;;18.40;99.90;;;;;;6268319;28;20056;-85
2022/07/07 12:42:38;;;;;;;12.27;3.38;;;18.20;99.90;;;;;;6262220;28;20516;-86
2022/07/07 12:45:42;;;;;;;11.48;2.30;;;18.20;99.90;;;;;;6265277;28;20486;-82
2022/07/07 12:48:49;;;;;;;15.65;2.88;;;18.00;99.90;;;;;;6258775;28;20076;-84
2022/07/07 12:51:55;;;;;;;15.35;3.53;;;17.80;99.90;;;;;;6263730;28;20581;-83
2022/07/07 12:55:08;;;;;;;13.07;2.70;;;17.50;99.90;;;;;;6279481;28;20183;-86
2022/07/07 12:58:23;;;;;;;16.17;2.80;;;17.40;99.90;;;;;;6278091;28;20487;-83
2022/07/07 13:01:27;;;;;;;17.55;6.07;;;17.50;99.90;;;;;;6265783;28;20529;-83
2022/07/07 13:04:29;;;;;;;13.18;2.72;;;17.80;99.90;;;;;;6262146;28;20048;-85
2022/07/07 13:07:33;;;;;;;16.02;3.13;;;17.70;99.90;;;;;;6272350;28;20395;-84
2022/07/07 13:10:35;;;;;;;15.75;3.20;;;17.60;99.90;;;;;;6265872;28;20056;-83
2022/07/07 13:13:37;;;;;;;18.05;3.83;;;17.30;99.90;;;;;;6273385;28;20410;-83
2022/07/07 13:16:39;;;;;;;12.10;2.85;;;17.40;99.90;;;;;;6262647;28;20037;-85
2022/07/07 13:19:41;;;;;;;17.58;3.33;;;17.70;99.90;;;;;;6265703;28;20098;-84
2022/07/07 13:22:44;;;;;;;15.80;3.00;;;17.80;99.90;;;;;;6253609;28;20048;-84
2022/07/07 13:25:46;;;;;;;;;;;17.90;99.90;;;;;;6263222;28;20056;-85
2022/07/07 13:28:48;;;;;;;15.63;3.45;;;18.50;99.90;;;;;;6259449;28;19920;-85
2022/07/07 13:31:50;;;;;;;10.30;2.80;;;18.90;99.90;;;;;;6272952;28;20041;-87
2022/07/07 13:34:52;;;;;;;9.25;2.13;;;19.40;99.90;;;;;;6262791;28;20045;-86
2022/07/07 13:37:56;;;;;;;15.05;2.80;;;19.30;99.90;;;;;;6284980;28;20048;-84
2022/07/07 13:40:58;;;;;;;11.90;2.03;;;19.00;99.90;;;;;;6276757;28;20053;-85
2022/07/07 13:43:59;;;;;;;12.52;2.22;;;18.40;99.90;;;;;;6268385;28;20056;-84
2022/07/07 13:47:02;;;;;;;9.98;2.40;;;18.00;99.90;;;;;;6269357;28;20212;-85
2022/07/07 13:50:05;;;;;;;12.60;2.00;;;17.90;99.90;;;;;;6250660;28;20064;-86
2022/07/07 13:53:08;;;;;;;9.13;2.22;;;18.00;99.90;;;;;;6256946;28;20056;-85
2022/07/07 13:56:10;;;;;;;10.50;2.28;;;17.90;99.90;;;;;;6261254;28;20045;-85
2022/07/07 13:59:12;;;;;;;15.57;2.50;;;18.20;99.90;;;;;;6259772;28;20509;-86
2022/07/07 14:02:14;;;;;;;16.02;2.33;;;17.80;99.90;;;;;;6272402;28;20056;-87
2022/07/07 14:05:16;;;;;;;10.30;2.40;;;17.70;99.90;;;;;;6262007;28;20041;-84
2022/07/07 14:08:20;;;;;;;15.35;2.55;;;17.20;99.90;;;;;;6292039;28;20049;-85
2022/07/07 14:11:22;;;;;;;18.60;3.17;;;17.10;99.90;;;;;;6258634;28;20045;-86
2022/07/07 14:14:24;;;;;;;11.57;2.10;;;17.00;99.90;;;;;;6256564;28;20091;-85
2022/07/07 14:17:27;;;;;;;12.48;2.30;;;17.30;99.90;;;;;;6270039;28;20058;-85
2022/07/07 14:20:29;;;;;;;12.50;1.88;;;17.40;99.90;;;;;;6260476;28;20045;-85
2022/07/07 14:23:33;;;;;;;6.53;1.70;;;17.80;99.90;;;;;;6259171;28;20613;-84
2022/07/07 14:26:34;;;;;;;;;;;18.20;99.90;;;;;;6258787;28;20041;-83
2022/07/07 14:29:37;;;;;;;9.20;1.80;;;17.80;99.90;;;;;;6259996;28;19935;-86
2022/07/07 14:32:39;;;;;;;13.65;1.80;;;17.80;99.90;;;;;;6272402;28;20513;-85
2022/07/07 14:35:41;;;;;;;10.93;2.08;;;17.90;99.90;;;;;;6297147;28;20460;-83
2022/07/07 14:38:44;;;;;;;8.20;1.70;;;17.70;99.90;;;;;;6259934;28;20556;-86
2022/07/07 14:41:47;;;;;;;12.02;1.80;;;18.00;99.90;;;;;;6263493;28;20497;-86
2022/07/07 14:44:50;;;;;;;9.48;2.05;;;18.10;99.90;;;;;;6268381;28;20056;-84
2022/07/07 14:47:52;;;;;;;14.48;2.38;;;17.50;99.90;;;;;;6268349;28;20056;-83
2022/07/07 14:50:54;;;;;;;10.82;2.83;;;17.10;99.90;;;;;;6260065;28;20120;-87
2022/07/07 14:53:57;;;;;;;13.32;2.53;;;17.30;99.90;;;;;;6265894;28;20053;-84
2022/07/07 14:56:59;;;;;;;8.75;2.00;;;17.50;99.90;;;;;;6265512;28;20045;-85
2022/07/07 15:00:01;;;;;;;11.25;2.13;;;18.00;99.90;;;;;;6258286;28;20061;-87
2022/07/07 15:03:03;;;;;;;7.55;1.95;;;18.50;99.90;;;;;;6263000;28;20057;-88
2022/07/07 15:06:05;;;;;;;7.38;1.95;;;18.50;99.90;;;;;;6283393;28;20051;-86
2022/07/07 15:09:09;;;;;;;9.63;1.88;;;18.20;99.90;;;;;;6270615;28;20134;-86
2022/07/07 15:12:11;;;;;;;9.05;2.30;;;18.10;99.90;;;;;;6270628;28;20240;-88
2022/07/07 15:15:13;;;;;;;10.82;2.00;;;17.50;99.90;;;;;;6263645;28;20415;-83
2022/07/07 15:18:16;;;;;;;10.57;2.10;;;17.70;99.90;;;;;;6262424;28;20037;-83
2022/07/07 15:21:18;;;;;;;10.65;2.50;;;17.70;99.90;;;;;;6258851;28;20141;-84
2022/07/07 15:24:21;;;;;;;7.93;1.92;;;17.30;99.90;;;;;;6288239;28;20059;-85
2022/07/07 15:27:23;;;;;;;9.15;1.70;;;17.20;99.90;;;;;;6273560;28;20068;-85
2022/07/07 15:30:25;;;;;;;13.02;2.42;;;17.30;99.90;;;;;;6271305;28;20131;-85
2022/07/07 15:33:28;;;;;;;12.48;2.00;;;17.50;99.90;;;;;;6274934;28;20060;-86
2022/07/07 15:36:30;;;;;;;15.13;2.20;;;17.50;99.90;;;;;;6289757;28;20401;-85
2022/07/07 15:39:33;;;;;;;9.77;1.85;;;17.60;99.90;;;;;;6267384;28;20553;-85
2022/07/07 15:42:35;;;;;;;10.38;2.20;;;17.70;99.90;;;;;;6273323;28;20116;-85
2022/07/07 15:45:37;;;;;;;11.48;1.80;;;17.90;99.90;;;;;;6269198;28;20132;-84
2022/07/07 15:48:42;;;;;;;10.27;2.05;;;17.70;99.90;;;;;;6270323;28;20076;-83
2022/07/07 15:51:44;;;;;;;12.18;2.22;;;17.70;99.90;;;;;;6272623;28;20052;-83
2022/07/07 15:54:48;;;;;;;12.50;2.63;;;17.10;99.90;;;;;;6263180;28;20053;-89